createdAt,value
2018-07-06T00:03:01.400Z,14.67
2018-07-06T00:08:56.309Z,14.63
2018-07-06T00:14:51.390Z,15.13
2018-07-06T00:20:46.334Z,14.97
2018-07-06T00:26:41.340Z,15.19
2018-07-06T00:32:36.344Z,13.6
2018-07-06T00:38:31.367Z,14.44
2018-07-06T00:44:26.350Z,14.72
2018-07-06T00:50:21.329Z,13.44
2018-07-06T00:56:16.351Z,13.77
2018-07-06T01:02:11.331Z,14.4
2018-07-06T01:08:06.349Z,14.75
2018-07-06T01:14:01.437Z,14.56
2018-07-06T01:19:56.396Z,15.01
2018-07-06T01:25:51.359Z,15.96
2018-07-06T01:31:46.432Z,15.28
2018-07-06T01:37:41.357Z,13.45
2018-07-06T01:43:36.372Z,13.44
2018-07-06T01:49:31.369Z,13.43
2018-07-06T01:55:26.395Z,12.76
2018-07-06T02:01:21.387Z,13.04
2018-07-06T02:07:16.416Z,12.66
2018-07-06T02:13:11.423Z,12.65
2018-07-06T02:19:06.453Z,12.9
2018-07-06T02:25:01.431Z,14.9
2018-07-06T02:30:56.425Z,15.99
2018-07-06T02:36:51.432Z,15.17
2018-07-06T02:42:46.387Z,14.77
2018-07-06T02:48:41.407Z,15.44
2018-07-06T02:54:36.428Z,15.24
2018-07-06T03:00:31.473Z,15.28
2018-07-06T03:06:26.420Z,15.57
2018-07-06T03:12:21.451Z,16.96
2018-07-06T03:18:16.440Z,16.98
2018-07-06T03:24:11.471Z,17.35
2018-07-06T03:30:06.410Z,16.53
2018-07-06T03:36:01.457Z,16.9
2018-07-06T03:41:56.448Z,17.7
2018-07-06T03:47:51.480Z,18.1
2018-07-06T03:53:46.471Z,18.15
2018-07-06T03:59:41.549Z,19.55
2018-07-06T04:05:36.469Z,19.61
2018-07-06T04:11:31.489Z,17.08
2018-07-06T04:17:26.463Z,17.56
2018-07-06T04:23:21.471Z,17.81
2018-07-06T04:29:16.527Z,18.26
2018-07-06T04:35:11.532Z,14.08
2018-07-06T04:41:06.487Z,16.35
2018-07-06T04:47:01.497Z,13.87
2018-07-06T04:52:56.500Z,15
2018-07-06T04:58:51.474Z,14.13
2018-07-06T05:04:46.504Z,12.66
2018-07-06T05:10:41.570Z,14.67
2018-07-06T05:16:36.513Z,16.69
2018-07-06T05:22:31.492Z,14.31
2018-07-06T05:28:26.528Z,14.28
2018-07-06T05:34:21.511Z,14.52
2018-07-06T05:40:16.502Z,14.74
2018-07-06T05:46:11.532Z,15.83
2018-07-06T05:52:06.529Z,15.24
2018-07-06T05:58:01.576Z,13.33
2018-07-06T06:03:56.567Z,13.75
2018-07-06T06:09:51.574Z,12.57
2018-07-06T06:15:46.546Z,12.1
2018-07-06T06:21:41.597Z,11.82
2018-07-06T06:27:36.582Z,12.87
2018-07-06T06:33:31.655Z,11.68
2018-07-06T06:39:26.646Z,10.99
2018-07-06T06:45:21.642Z,11.32
2018-07-06T06:51:16.849Z,9.71
2018-07-06T06:57:11.659Z,11.37
2018-07-06T07:03:06.645Z,10.27
2018-07-06T07:09:01.821Z,10.08
2018-07-06T07:14:56.730Z,10.32
2018-07-06T07:20:51.651Z,10.23
2018-07-06T07:26:46.628Z,9.65
2018-07-06T07:32:41.602Z,9.45
2018-07-06T07:38:36.607Z,9.9
2018-07-06T07:44:31.653Z,10.64
2018-07-06T07:50:26.578Z,12.98
2018-07-06T07:56:21.573Z,12.34
2018-07-06T08:02:16.611Z,13.2
2018-07-06T08:08:11.606Z,12.44
2018-07-06T08:14:06.651Z,12.79
2018-07-06T08:20:01.901Z,14.19
2018-07-06T08:25:56.650Z,14.51
2018-07-06T08:31:51.662Z,15.13
2018-07-06T08:37:46.635Z,16.36
2018-07-06T08:43:41.609Z,18.77
2018-07-06T08:49:36.663Z,18.24
2018-07-06T08:55:31.657Z,17
2018-07-06T09:01:26.633Z,16.29
2018-07-06T09:07:21.687Z,17.57
2018-07-06T09:13:16.657Z,16.68
2018-07-06T09:19:11.650Z,17.55
2018-07-06T09:25:06.635Z,16.87
2018-07-06T09:31:01.666Z,16
2018-07-06T09:36:56.629Z,8.93
2018-07-06T09:42:51.643Z,9.3
2018-07-06T09:48:46.648Z,9.3
2018-07-06T09:54:41.650Z,7.87
2018-07-06T10:00:36.681Z,7.13
2018-07-06T10:06:31.694Z,3.33
2018-07-06T10:12:26.678Z,3.02
2018-07-06T10:18:21.660Z,2.78
2018-07-06T10:24:16.724Z,3.2
2018-07-06T10:30:12.381Z,2.53
2018-07-06T10:36:06.725Z,2.17
2018-07-06T10:42:01.693Z,2.08
2018-07-06T10:47:56.717Z,2.46
2018-07-06T10:53:51.712Z,2.53
2018-07-06T10:59:46.678Z,3.23
2018-07-06T11:05:41.744Z,3.66
2018-07-06T11:11:36.744Z,2.95
2018-07-06T11:17:31.746Z,2.9
2018-07-06T11:23:26.714Z,3.01
2018-07-06T11:29:21.760Z,2.63
2018-07-06T11:35:16.762Z,2.38
2018-07-06T11:41:11.760Z,2.17
2018-07-06T11:47:06.739Z,3.71
2018-07-06T11:53:01.758Z,3.03
2018-07-06T11:58:56.739Z,2.25
2018-07-06T12:04:51.756Z,2.27
2018-07-06T12:10:46.809Z,2.25
2018-07-06T12:16:41.798Z,2.03
2018-07-06T12:22:36.864Z,1.93
2018-07-06T12:28:31.790Z,1.99
2018-07-06T12:34:26.768Z,1.94
2018-07-06T12:40:21.829Z,1.78
2018-07-06T12:46:16.749Z,2.28
2018-07-06T12:52:11.746Z,2.67
2018-07-06T12:58:06.897Z,2.26
2018-07-06T13:04:01.807Z,2.29
2018-07-06T13:09:56.791Z,1.95
2018-07-06T13:15:51.745Z,1.91
2018-07-06T13:21:46.757Z,1.96
2018-07-06T13:27:41.771Z,1.61
2018-07-06T13:33:36.860Z,1.73
2018-07-06T13:39:31.852Z,1.53
2018-07-06T13:45:26.773Z,1.83
2018-07-06T13:51:21.804Z,1.46
2018-07-06T13:57:16.765Z,1.51
2018-07-06T14:03:11.759Z,1.41
2018-07-06T14:09:06.770Z,1.77
2018-07-06T14:15:01.785Z,1.91
2018-07-06T14:20:56.776Z,1.91
2018-07-06T14:26:51.842Z,1.98
2018-07-06T14:32:46.835Z,2.02
2018-07-06T14:38:41.825Z,2.51
2018-07-06T14:44:36.819Z,2.13
2018-07-06T14:50:31.833Z,2.14
2018-07-06T14:56:26.821Z,1.71
2018-07-06T15:02:21.820Z,1.83
2018-07-06T15:08:16.839Z,1.72
2018-07-06T15:14:11.829Z,1.55
2018-07-06T15:20:06.820Z,1.82
2018-07-06T15:26:01.838Z,1.7
2018-07-06T15:31:56.876Z,1.84
2018-07-06T15:37:51.834Z,2.1
2018-07-06T15:43:46.911Z,1.81
2018-07-06T15:49:41.883Z,1.87
2018-07-06T15:55:36.832Z,2
2018-07-06T16:01:31.840Z,1.98
2018-07-06T16:07:26.868Z,2.49
2018-07-06T16:13:21.833Z,2.67
2018-07-06T16:19:16.860Z,1.94
2018-07-06T16:25:12.424Z,2.04
2018-07-06T16:31:06.916Z,2.38
2018-07-06T16:37:01.928Z,2.86
2018-07-06T16:42:56.865Z,3.18
2018-07-06T16:48:51.871Z,3.1
2018-07-06T16:54:46.917Z,3.35
2018-07-06T17:00:41.891Z,2.94
2018-07-06T17:06:36.877Z,3.7
2018-07-06T17:12:31.870Z,3.65
2018-07-06T17:18:26.888Z,3.5
2018-07-06T17:24:21.889Z,3.99
2018-07-06T17:30:16.899Z,4.74
2018-07-06T17:36:11.907Z,4.44
2018-07-06T17:42:06.949Z,4.86
2018-07-06T17:48:01.954Z,4.43
2018-07-06T17:53:56.977Z,5.63
2018-07-06T17:59:51.965Z,4.71
2018-07-06T18:05:46.940Z,4.67
2018-07-06T18:11:41.966Z,4.77
2018-07-06T18:17:36.926Z,5.73
2018-07-06T18:23:31.937Z,4.96
2018-07-06T18:29:27.056Z,4.52
2018-07-06T18:35:21.955Z,5.59
2018-07-06T18:41:16.946Z,4.89
2018-07-06T18:47:11.984Z,5.15
2018-07-06T18:53:06.997Z,4.87
2018-07-06T18:59:01.968Z,4.95
2018-07-06T19:04:56.964Z,5.04
2018-07-06T19:10:51.950Z,5.37
2018-07-06T19:16:46.948Z,6.37
2018-07-06T19:22:41.977Z,5.74
2018-07-06T19:28:37.001Z,5.58
2018-07-06T19:34:31.986Z,6.63
2018-07-06T19:40:26.977Z,5.8
2018-07-06T19:46:21.976Z,6.16
2018-07-06T19:52:16.995Z,6.73
2018-07-06T19:58:12.059Z,6.43
2018-07-06T20:04:06.984Z,6.67
2018-07-06T20:10:02.054Z,5.94
2018-07-06T20:15:56.994Z,5.82
2018-07-06T20:21:51.991Z,6.45
2018-07-06T20:27:47.013Z,6.41
2018-07-06T20:33:42.027Z,6.58
2018-07-06T20:39:37.015Z,6.68
2018-07-06T20:45:32.006Z,6.38
2018-07-06T20:51:27.065Z,6.59
2018-07-06T20:57:22.086Z,7.91
2018-07-06T21:03:17.032Z,7.6
2018-07-06T21:09:12.102Z,6.97
2018-07-06T21:15:07.042Z,6.29
2018-07-06T21:21:02.026Z,6.68
2018-07-06T21:26:57.051Z,6.53
2018-07-06T21:32:52.037Z,6.55
2018-07-06T21:38:47.036Z,6.89
2018-07-06T21:44:42.071Z,6.24
2018-07-06T21:50:37.061Z,6.84
2018-07-06T21:56:32.115Z,7.23
2018-07-06T22:02:27.071Z,6.8
2018-07-06T22:08:22.116Z,8.3
2018-07-06T22:14:17.120Z,8.9
2018-07-06T22:20:12.085Z,7.88
2018-07-06T22:26:07.204Z,8.97
2018-07-06T22:32:02.156Z,8.47
2018-07-06T22:37:57.119Z,8.09
2018-07-06T22:43:52.159Z,11.06
2018-07-06T22:49:47.100Z,9.03
2018-07-06T22:55:42.136Z,8.96
2018-07-06T23:01:37.154Z,8.7
2018-07-06T23:07:32.116Z,9.11
2018-07-06T23:13:27.112Z,9.1
2018-07-06T23:19:22.102Z,8.45
2018-07-06T23:25:17.147Z,8.76
2018-07-06T23:31:12.109Z,9.6
2018-07-06T23:37:07.111Z,9.96
2018-07-06T23:43:02.111Z,10.74
2018-07-06T23:48:57.172Z,8.67
2018-07-06T23:54:52.133Z,9.51
